TimePST,TemperatureF,Dew PointF,Humidity,Sea Level PressureIn,VisibilityMPH,Wind Direction,Wind SpeedMPH,Gust SpeedMPH,PrecipitationIn,Events,Conditions,WindDirDegrees,DateUTC
12:53 AM,35.1,34.0,96,30.30,0.2,Calm,Calm,-,N/A,Fog,Fog,0,2013-01-18 08:53:00
1:53 AM,35.1,35.1,100,30.31,0.5,Calm,Calm,-,N/A,Fog,Fog,0,2013-01-18 09:53:00
2:53 AM,35.1,35.1,100,30.30,0.5,Calm,Calm,-,N/A,Fog,Fog,0,2013-01-18 10:53:00
3:53 AM,35.1,34.0,96,30.30,0.8,Calm,Calm,-,N/A,,Mist,0,2013-01-18 11:53:00
4:31 AM,33.8,33.8,100,30.29,1.0,Calm,Calm,-,N/A,,Mist,0,2013-01-18 12:31:00
4:53 AM,35.1,34.0,96,30.30,1.0,Calm,Calm,-,N/A,,Overcast,0,2013-01-18 12:53:00
5:31 AM,35.6,33.8,93,30.29,2.5,SW,3.5,-,N/A,,Overcast,230,2013-01-18 13:31:00
5:49 AM,33.8,33.8,100,30.29,3.0,Calm,Calm,-,N/A,,Overcast,0,2013-01-18 13:49:00
5:53 AM,34.0,34.0,100,30.29,3.0,Calm,Calm,-,N/A,,Overcast,0,2013-01-18 13:53:00
6:44 AM,35.6,33.8,93,30.28,1.8,Calm,Calm,-,N/A,,Overcast,0,2013-01-18 14:44:00
6:53 AM,35.1,34.0,96,30.29,1.8,Calm,Calm,-,N/A,,Overcast,0,2013-01-18 14:53:00
7:03 AM,35.6,33.8,93,30.28,2.5,Calm,Calm,-,N/A,,Overcast,0,2013-01-18 15:03:00
7:10 AM,35.6,33.8,93,30.28,6.0,NNE,3.5,-,N/A,,Overcast,30,2013-01-18 15:10:00
7:53 AM,35.1,34.0,96,30.30,9.0,Calm,Calm,-,N/A,,Overcast,0,2013-01-18 15:53:00
8:53 AM,36.0,35.1,97,30.32,8.0,Calm,Calm,-,N/A,,Overcast,0,2013-01-18 16:53:00
9:15 AM,37.4,35.6,93,30.31,9.0,Calm,Calm,-,N/A,,Overcast,0,2013-01-18 17:15:00
9:53 AM,37.9,36.0,93,30.33,10.0,Calm,Calm,-,N/A,,Overcast,0,2013-01-18 17:53:00
10:53 AM,39.0,36.0,89,30.33,10.0,Calm,Calm,-,N/A,,Overcast,0,2013-01-18 18:53:00
11:53 AM,39.9,36.0,86,30.34,9.0,North,5.8,-,N/A,,Overcast,360,2013-01-18 19:53:00
12:53 PM,41.0,36.0,82,30.32,8.0,Calm,Calm,-,N/A,,Mostly Cloudy,0,2013-01-18 20:53:00
1:53 PM,41.0,36.0,82,30.32,7.0,North,3.5,-,N/A,,Overcast,350,2013-01-18 21:53:00
2:53 PM,39.9,35.1,83,30.32,8.0,North,4.6,-,N/A,,Overcast,350,2013-01-18 22:53:00
3:53 PM,39.9,35.1,83,30.34,9.0,North,3.5,-,N/A,,Overcast,360,2013-01-18 23:53:00
4:53 PM,39.0,34.0,82,30.33,10.0,Calm,Calm,-,N/A,,Overcast,0,2013-01-19 00:53:00
5:53 PM,37.9,34.0,86,30.32,10.0,Calm,Calm,-,N/A,,Overcast,0,2013-01-19 01:53:00
6:53 PM,36.0,34.0,93,30.33,10.0,Calm,Calm,-,N/A,,Overcast,0,2013-01-19 02:53:00
7:53 PM,37.0,35.1,93,30.33,10.0,Calm,Calm,-,N/A,,Overcast,0,2013-01-19 03:53:00
8:53 PM,35.1,34.0,96,30.35,10.0,Calm,Calm,-,N/A,,Mostly Cloudy,0,2013-01-19 04:53:00
9:53 PM,34.0,33.1,96,30.36,9.0,Calm,Calm,-,N/A,,Overcast,0,2013-01-19 05:53:00
10:53 PM,35.1,35.1,100,30.36,8.0,Calm,Calm,-,N/A,,Overcast,0,2013-01-19 06:53:00
11:53 PM,36.0,35.1,97,30.37,8.0,Calm,Calm,-,N/A,,Unknown,0,2013-01-19 07:53:00